Time;durP1;ratioP1;P1;durP2;ratioP2;P2;SDS_P1;SDS_P2;PMS_P1;PMS_P2;Temp;Humidity;BMP_temperature;BMP_pressure;BME280_temperature;BME280_humidity;BME280_pressure;Samples;Min_cycle;Max_cycle;Signal;HPM_P1;HPM_P2
2023/04/28 00:16:17;;;;;;;3.05;1.58;;;13.00;85.30;;;;;;6157311;23;20401;-90
2023/04/28 00:18:45;;;;;;;1.95;0.95;;;13.10;82.70;;;;;;6142109;23;20380;-90
2023/04/28 00:21:12;;;;;;;2.15;1.10;;;13.20;79.70;;;;;;6144445;23;20371;-88
2023/04/28 00:23:41;;;;;;;3.90;1.50;;;13.30;76.90;;;;;;6168018;23;20405;-89
2023/04/28 00:26:08;;;;;;;2.10;1.10;;;13.50;73.90;;;;;;6138633;23;20389;-87
2023/04/28 00:28:35;;;;;;;2.53;1.42;;;13.60;72.60;;;;;;6164490;23;20410;-89
2023/04/28 00:31:08;;;;;;;2.05;1.00;;;13.70;71.30;;;;;;6136003;23;20374;-84
2023/04/28 00:33:36;;;;;;;1.85;0.90;;;13.80;70.50;;;;;;6151787;23;20382;-89
2023/04/28 00:36:03;;;;;;;2.33;1.10;;;13.90;70.10;;;;;;6147320;23;20402;-82
2023/04/28 00:38:30;;;;;;;2.13;1.10;;;13.90;69.50;;;;;;6172782;23;20402;-88
2023/04/28 00:41:00;;;;;;;2.50;0.80;;;13.90;69.10;;;;;;6113210;23;20356;-88
2023/04/28 00:43:27;;;;;;;2.38;1.20;;;14.00;68.40;;;;;;6149902;23;20385;-89
2023/04/28 00:45:55;;;;;;;1.40;0.90;;;13.90;68.70;;;;;;6115847;23;20562;-88
2023/04/28 00:48:23;;;;;;;2.53;1.20;;;14.00;69.50;;;;;;6146684;23;20419;-88
2023/04/28 00:50:51;;;;;;;2.40;1.00;;;13.90;68.90;;;;;;6152862;23;20449;-87
2023/04/28 00:53:20;;;;;;;1.67;0.90;;;13.90;69.40;;;;;;6113953;23;20399;-82
2023/04/28 00:55:49;;;;;;;2.10;0.90;;;13.90;68.90;;;;;;6152450;23;20388;-87
2023/04/28 00:58:16;;;;;;;1.60;1.10;;;13.90;68.60;;;;;;6151375;23;20374;-86
2023/04/28 01:00:43;;;;;;;1.50;0.80;;;13.90;69.30;;;;;;6167690;23;20369;-86
2023/04/28 01:03:11;;;;;;;2.10;1.20;;;13.90;69.00;;;;;;6108258;23;20372;-85
2023/04/28 01:05:38;;;;;;;2.30;0.90;;;13.90;69.60;;;;;;6149117;23;20405;-85
2023/04/28 01:08:05;;;;;;;2.50;1.20;;;13.90;68.60;;;;;;6150270;23;20750;-85
2023/04/28 01:10:32;;;;;;;1.75;0.90;;;14.00;67.70;;;;;;6150198;23;20417;-86
2023/04/28 01:12:58;;;;;;;1.33;0.93;;;14.00;67.10;;;;;;6152013;23;20682;-87
2023/04/28 01:15:26;;;;;;;2.97;1.00;;;14.00;67.00;;;;;;6150716;23;20735;-86
2023/04/28 01:17:54;;;;;;;1.30;0.80;;;14.00;66.90;;;;;;6152097;23;20437;-86
2023/04/28 01:20:21;;;;;;;3.08;1.10;;;14.10;66.80;;;;;;6151056;23;20366;-86
2023/04/28 01:22:47;;;;;;;2.25;1.00;;;14.10;67.40;;;;;;6151703;23;20398;-86
2023/04/28 01:25:14;;;;;;;3.55;1.48;;;14.10;66.00;;;;;;6151569;23;20690;-86
2023/04/28 01:27:41;;;;;;;3.90;1.20;;;14.10;65.80;;;;;;6151081;23;20366;-85
2023/04/28 01:30:08;;;;;;;1.38;1.02;;;14.10;64.70;;;;;;6151329;23;20436;-85
2023/04/28 01:32:35;;;;;;;2.20;1.27;;;14.20;64.60;;;;;;6152144;23;20370;-85
2023/04/28 01:35:02;;;;;;;1.40;1.00;;;14.20;64.10;;;;;;6151490;23;20457;-86
2023/04/28 01:37:29;;;;;;;1.42;0.93;;;14.20;64.00;;;;;;6150782;23;20417;-85
2023/04/28 01:39:56;;;;;;;1.92;1.05;;;14.20;64.00;;;;;;6150638;23;20427;-85
2023/04/28 01:42:23;;;;;;;1.92;0.95;;;14.20;64.00;;;;;;6150405;23;20374;-86
2023/04/28 01:44:49;;;;;;;1.27;0.70;;;14.20;64.00;;;;;;6151089;23;20405;-86
2023/04/28 01:47:16;;;;;;;1.52;0.90;;;14.20;63.80;;;;;;6150894;23;20402;-86
2023/04/28 01:49:43;;;;;;;2.00;1.08;;;14.10;64.40;;;;;;6150858;23;20362;-87
2023/04/28 01:52:10;;;;;;;2.15;1.10;;;14.10;64.60;;;;;;6152305;23;20381;-85
2023/04/28 01:54:37;;;;;;;2.05;1.20;;;14.10;65.10;;;;;;6150915;23;20468;-85
2023/04/28 01:57:06;;;;;;;1.67;0.87;;;14.10;65.40;;;;;;6151444;23;20370;-86
2023/04/28 01:59:35;;;;;;;2.65;1.02;;;14.00;65.00;;;;;;6150667;23;20511;-85
2023/04/28 02:02:01;;;;;;;2.47;1.05;;;14.00;65.10;;;;;;6145554;23;20415;-85
2023/04/28 02:04:28;;;;;;;2.30;1.20;;;14.00;65.20;;;;;;6145208;23;20904;-85
2023/04/28 02:06:55;;;;;;;2.15;1.15;;;14.00;65.30;;;;;;6121828;23;20426;-85
2023/04/28 02:09:22;;;;;;;2.45;1.25;;;14.00;65.20;;;;;;6121842;23;20488;-85
2023/04/28 02:11:49;;;;;;;1.92;0.98;;;14.00;65.20;;;;;;6121034;23;20690;-86
2023/04/28 02:14:16;;;;;;;2.90;0.90;;;14.00;65.50;;;;;;6121698;23;20462;-85
2023/04/28 02:16:43;;;;;;;1.60;0.90;;;13.90;65.20;;;;;;6121170;23;20376;-86
2023/04/28 02:19:10;;;;;;;2.90;1.15;;;13.90;65.80;;;;;;6122001;23;20452;-85
2023/04/28 02:21:37;;;;;;;1.02;0.77;;;13.90;65.60;;;;;;6121155;23;20451;-85
2023/04/28 02:24:04;;;;;;;1.97;1.20;;;13.90;65.80;;;;;;6121536;23;20379;-86
2023/04/28 02:26:33;;;;;;;1.50;0.98;;;13.80;66.30;;;;;;6121030;23;20395;-86
2023/04/28 02:29:00;;;;;;;1.08;0.98;;;13.80;66.20;;;;;;6121996;23;20462;-86
2023/04/28 02:31:27;;;;;;;0.85;0.70;;;13.80;66.50;;;;;;6120657;23;20376;-86
2023/04/28 02:33:54;;;;;;;3.50;1.45;;;13.70;66.50;;;;;;6121340;23;20383;-85
2023/04/28 02:36:21;;;;;;;2.15;1.27;;;13.70;67.30;;;;;;6121202;23;20913;-85
2023/04/28 02:38:48;;;;;;;2.35;1.40;;;13.60;67.40;;;;;;6120953;23;20390;-86
2023/04/28 02:41:15;;;;;;;1.77;0.90;;;13.60;67.70;;;;;;6121804;23;20476;-85
2023/04/28 02:43:42;;;;;;;1.88;1.00;;;13.60;67.70;;;;;;6145320;23;20380;-86
2023/04/28 02:46:10;;;;;;;2.08;0.95;;;13.60;68.10;;;;;;6121617;23;20372;-85
2023/04/28 02:48:36;;;;;;;2.15;1.00;;;13.60;67.70;;;;;;6128127;23;20372;-87
2023/04/28 02:51:03;;;;;;;2.72;1.00;;;13.60;67.90;;;;;;6131975;23;20368;-88
2023/04/28 02:53:30;;;;;;;1.80;1.00;;;13.60;68.20;;;;;;6147730;23;20387;-85
2023/04/28 02:55:58;;;;;;;1.58;1.15;;;13.60;67.60;;;;;;6121122;23;20388;-85
2023/04/28 02:58:25;;;;;;;1.30;1.00;;;13.60;68.20;;;;;;6121509;23;20382;-86
2023/04/28 03:00:52;;;;;;;2.80;1.30;;;13.60;68.00;;;;;;6145461;23;20410;-86
2023/04/28 03:03:19;;;;;;;2.03;0.90;;;13.60;67.80;;;;;;6122759;23;20380;-85
2023/04/28 03:05:46;;;;;;;1.57;1.10;;;13.60;67.90;;;;;;6091682;23;20385;-85
2023/04/28 03:08:13;;;;;;;2.20;1.00;;;13.70;68.20;;;;;;6086848;23;20493;-85
2023/04/28 03:10:40;;;;;;;1.48;0.77;;;13.70;68.60;;;;;;6088812;23;20388;-86
2023/04/28 03:13:07;;;;;;;1.00;0.70;;;13.70;69.80;;;;;;6093278;23;20389;-86
2023/04/28 03:15:34;;;;;;;1.40;0.80;;;13.60;69.50;;;;;;6093260;23;20381;-85
2023/04/28 03:18:01;;;;;;;1.03;0.80;;;13.60;69.80;;;;;;6094275;23;20445;-86
2023/04/28 03:20:28;;;;;;;1.20;1.00;;;13.60;70.00;;;;;;6094468;23;20388;-86
2023/04/28 03:22:54;;;;;;;2.03;1.00;;;13.60;69.60;;;;;;6093120;23;20712;-85
2023/04/28 03:25:21;;;;;;;1.53;1.07;;;13.60;72.30;;;;;;6094119;23;20385;-84
2023/04/28 03:27:48;;;;;;;2.20;1.00;;;13.50;72.10;;;;;;6094667;23;20501;-86
2023/04/28 03:30:15;;;;;;;1.00;0.80;;;13.50;70.70;;;;;;6093789;23;20416;-85
2023/04/28 03:32:42;;;;;;;1.25;1.05;;;13.50;70.00;;;;;;6093582;23;20405;-86
2023/04/28 03:35:09;;;;;;;1.25;0.70;;;13.40;69.40;;;;;;6094001;23;20786;-85
2023/04/28 03:37:36;;;;;;;1.57;0.90;;;13.40;68.90;;;;;;6094562;23;20398;-85
2023/04/28 03:40:03;;;;;;;1.23;0.80;;;13.40;68.50;;;;;;6094078;23;20445;-86
2023/04/28 03:42:30;;;;;;;1.20;0.90;;;13.40;69.60;;;;;;6096110;23;20405;-85
2023/04/28 03:44:56;;;;;;;1.30;1.00;;;13.40;70.00;;;;;;6093040;23;20386;-85
2023/04/28 03:47:23;;;;;;;2.38;1.20;;;13.40;70.50;;;;;;6094169;23;20460;-85
2023/04/28 03:49:51;;;;;;;1.73;0.90;;;13.30;72.50;;;;;;6093219;23;20764;-86
2023/04/28 03:52:17;;;;;;;0.95;0.70;;;13.30;76.00;;;;;;6093706;23;20408;-86
2023/04/28 03:54:45;;;;;;;1.15;0.68;;;13.30;73.60;;;;;;6093272;23;20409;-85
2023/04/28 03:57:11;;;;;;;1.15;0.75;;;13.30;73.90;;;;;;6093910;23;20704;-86
2023/04/28 03:59:38;;;;;;;2.28;0.70;;;13.30;73.70;;;;;;6092953;23;20429;-86
2023/04/28 04:02:05;;;;;;;1.45;0.77;;;13.30;74.00;;;;;;6093541;23;20745;-87
2023/04/28 04:04:32;;;;;;;1.90;0.95;;;13.30;76.20;;;;;;6107852;23;20387;-86
2023/04/28 04:07:00;;;;;;;1.67;1.20;;;13.30;76.90;;;;;;6122600;23;20443;-86
2023/04/28 04:09:27;;;;;;;1.30;0.90;;;13.30;78.20;;;;;;6122664;23;20839;-86
2023/04/28 04:11:54;;;;;;;0.85;0.80;;;13.20;77.80;;;;;;6121512;23;20751;-86
2023/04/28 04:14:21;;;;;;;1.40;1.20;;;13.20;80.30;;;;;;6122878;23;20458;-86
2023/04/28 04:16:48;;;;;;;1.33;0.98;;;13.20;81.90;;;;;;6121944;23;20463;-86
2023/04/28 04:19:15;;;;;;;1.63;1.20;;;13.10;83.20;;;;;;6123089;23;20403;-87
2023/04/28 04:21:41;;;;;;;2.27;1.50;;;13.10;88.40;;;;;;6122053;23;20427;-84
2023/04/28 04:24:08;;;;;;;2.30;1.50;;;13.00;88.60;;;;;;6146784;23;20427;-86
2023/04/28 04:26:35;;;;;;;2.00;1.30;;;12.90;86.90;;;;;;6123117;23;20368;-86
2023/04/28 04:29:02;;;;;;;2.08;1.05;;;12.90;90.00;;;;;;6122022;23;20376;-85
2023/04/28 04:31:29;;;;;;;2.07;1.37;;;12.90;88.30;;;;;;6122846;23;20497;-86
2023/04/28 04:33:56;;;;;;;1.90;1.43;;;12.80;88.40;;;;;;6121433;23;20384;-87
2023/04/28 04:36:23;;;;;;;1.98;1.30;;;12.80;88.00;;;;;;6122870;23;20372;-86
2023/04/28 04:38:50;;;;;;;1.60;1.10;;;12.80;89.30;;;;;;6121913;23;20456;-86
2023/04/28 04:41:20;;;;;;;1.52;1.20;;;12.80;89.20;;;;;;6146737;23;20376;-86
2023/04/28 04:43:48;;;;;;;1.05;0.85;;;12.70;90.20;;;;;;6121828;23;20714;-86
2023/04/28 04:46:15;;;;;;;1.38;1.10;;;12.60;90.00;;;;;;6122568;23;20482;-85
2023/04/28 04:48:42;;;;;;;1.40;1.30;;;12.70;90.90;;;;;;6121704;23;20406;-86
2023/04/28 04:51:09;;;;;;;1.55;1.00;;;12.60;92.50;;;;;;6123075;23;20377;-85
2023/04/28 04:53:36;;;;;;;1.83;0.95;;;12.60;90.90;;;;;;6122645;23;20454;-86
2023/04/28 04:56:03;;;;;;;1.20;1.10;;;12.60;91.10;;;;;;6121982;23;20442;-86
2023/04/28 04:58:30;;;;;;;1.70;1.10;;;12.60;91.50;;;;;;6122467;23;20451;-86
2023/04/28 05:00:57;;;;;;;2.15;1.20;;;12.50;93.10;;;;;;6121448;23;20455;-86
2023/04/28 05:03:24;;;;;;;1.40;1.00;;;12.50;92.10;;;;;;6122065;23;20855;-86
2023/04/28 05:05:51;;;;;;;2.15;1.25;;;12.50;91.60;;;;;;6123230;23;20380;-86
2023/04/28 05:08:18;;;;;;;1.95;1.17;;;12.50;93.80;;;;;;6122136;23;20415;-86
2023/04/28 05:10:45;;;;;;;1.77;1.20;;;12.40;92.40;;;;;;6121669;23;20434;-86
2023/04/28 05:13:12;;;;;;;1.55;1.17;;;12.40;91.80;;;;;;6122221;23;20437;-86
2023/04/28 05:15:39;;;;;;;1.40;1.13;;;12.40;93.20;;;;;;6122425;23;20893;-86
2023/04/28 05:18:10;;;;;;;2.45;1.30;;;12.40;93.20;;;;;;6121868;23;20676;-87
2023/04/28 05:20:37;;;;;;;2.92;1.48;;;12.40;92.50;;;;;;6122273;23;20450;-86
2023/04/28 05:23:04;;;;;;;2.40;1.30;;;12.40;93.70;;;;;;6146225;23;20379;-86
2023/04/28 05:25:31;;;;;;;2.40;1.20;;;12.40;92.80;;;;;;6122093;23;20380;-85
2023/04/28 05:28:03;;;;;;;1.30;1.13;;;12.40;92.60;;;;;;6145788;23;20456;-86
2023/04/28 05:30:30;;;;;;;2.30;1.50;;;12.40;92.40;;;;;;6122064;23;20382;-86
2023/04/28 05:32:57;;;;;;;1.30;1.05;;;12.40;92.80;;;;;;6121606;23;20375;-87
2023/04/28 05:35:25;;;;;;;2.20;1.23;;;12.50;92.50;;;;;;6121477;23;20403;-86
2023/04/28 05:37:52;;;;;;;1.95;1.25;;;12.40;92.50;;;;;;6121769;23;20505;-86
2023/04/28 05:40:19;;;;;;;2.10;1.05;;;12.50;92.40;;;;;;6122152;23;20451;-87
2023/04/28 05:42:45;;;;;;;1.38;1.10;;;12.60;92.90;;;;;;6123288;23;20439;-86
2023/04/28 05:45:12;;;;;;;3.35;1.80;;;12.50;92.90;;;;;;6121714;23;20383;-86
2023/04/28 05:47:39;;;;;;;1.65;1.40;;;12.60;94.20;;;;;;6122419;23;20406;-86
2023/04/28 05:50:07;;;;;;;1.63;1.30;;;12.60;93.50;;;;;;6121209;23;20375;-86
2023/04/28 05:52:33;;;;;;;2.00;1.45;;;12.70;93.20;;;;;;6146686;23;20379;-86
2023/04/28 05:55:00;;;;;;;2.33;1.50;;;12.70;92.90;;;;;;6121069;23;20706;-87
2023/04/28 05:57:27;;;;;;;2.28;1.58;;;12.80;92.80;;;;;;6122620;23;20455;-86
2023/04/28 05:59:59;;;;;;;2.53;2.08;;;12.80;92.60;;;;;;6121085;23;20395;-86
2023/04/28 06:02:26;;;;;;;3.17;2.25;;;12.90;92.20;;;;;;6123408;23;20376;-86
2023/04/28 06:04:53;;;;;;;3.88;2.42;;;12.90;91.70;;;;;;6120990;23;20857;-87
2023/04/28 06:07:21;;;;;;;4.23;3.40;;;13.00;91.20;;;;;;6121859;23;20398;-87
2023/04/28 06:09:48;;;;;;;6.93;6.22;;;13.00;90.90;;;;;;6121275;23;20372;-87
2023/04/28 06:12:15;;;;;;;9.52;8.63;;;13.10;90.90;;;;;;6121492;23;20386;-86
2023/04/28 06:14:42;;;;;;;8.83;7.93;;;13.10;90.60;;;;;;6121069;23;20910;-86
2023/04/28 06:17:09;;;;;;;6.78;6.07;;;13.20;90.30;;;;;;6120689;23;20447;-85
2023/04/28 06:19:36;;;;;;;7.03;5.82;;;13.20;91.40;;;;;;6121525;23;20372;-86
2023/04/28 06:22:02;;;;;;;6.28;5.68;;;13.30;90.70;;;;;;6145605;23;20371;-86
2023/04/28 06:24:29;;;;;;;5.82;5.22;;;13.30;91.30;;;;;;6121687;23;20443;-87
2023/04/28 06:26:56;;;;;;;6.57;5.88;;;13.40;90.40;;;;;;6120848;23;20378;-87
2023/04/28 06:29:23;;;;;;;5.28;4.65;;;13.40;90.70;;;;;;6122266;23;20375;-86
2023/04/28 06:31:51;;;;;;;7.20;6.03;;;13.50;90.00;;;;;;6120854;23;20987;-86
2023/04/28 06:34:18;;;;;;;7.13;5.85;;;13.50;89.10;;;;;;6122055;23;20380;-85
2023/04/28 06:36:45;;;;;;;6.75;5.95;;;13.60;87.80;;;;;;6121301;23;20710;-86
2023/04/28 06:39:12;;;;;;;5.65;4.82;;;13.70;87.90;;;;;;6120658;23;20363;-86
2023/04/28 06:41:40;;;;;;;5.78;5.18;;;13.70;86.50;;;;;;6121811;23;20427;-86
2023/04/28 06:44:07;;;;;;;10.77;7.65;;;13.80;85.00;;;;;;6120388;23;20371;-85
2023/04/28 06:46:35;;;;;;;12.00;7.93;;;13.90;85.00;;;;;;6114786;23;20415;-85
2023/04/28 06:49:02;;;;;;;7.22;6.07;;;14.00;85.00;;;;;;6117468;23;20413;-85
2023/04/28 06:51:31;;;;;;;7.05;5.47;;;14.10;84.30;;;;;;6119977;23;20387;-85
2023/04/28 06:53:58;;;;;;;5.47;4.88;;;14.10;84.10;;;;;;6122853;23;20439;-85
2023/04/28 06:56:25;;;;;;;7.05;5.43;;;14.20;83.00;;;;;;6118712;23;20701;-85
2023/04/28 06:58:55;;;;;;;6.22;5.28;;;14.40;82.30;;;;;;6122841;23;20900;-84
2023/04/28 07:01:22;;;;;;;6.30;5.30;;;14.50;81.50;;;;;;6123253;23;20845;-85
2023/04/28 07:03:49;;;;;;;8.40;5.60;;;14.50;81.90;;;;;;6123072;23;20442;-85
2023/04/28 07:06:16;;;;;;;7.03;5.80;;;14.60;80.10;;;;;;6122674;23;20376;-85
2023/04/28 07:08:42;;;;;;;7.03;5.00;;;14.70;78.90;;;;;;6123059;23;20435;-85
2023/04/28 07:11:09;;;;;;;4.80;4.20;;;14.80;77.50;;;;;;6122171;23;20455;-85
2023/04/28 07:13:36;;;;;;;4.63;4.13;;;14.90;77.00;;;;;;6122950;23;20426;-85
2023/04/28 07:16:03;;;;;;;4.70;4.17;;;15.10;75.50;;;;;;6122802;23;20550;-84
2023/04/28 07:18:30;;;;;;;5.57;4.95;;;15.20;74.70;;;;;;6123161;23;20387;-85
2023/04/28 07:20:57;;;;;;;9.27;6.55;;;15.30;74.40;;;;;;6125239;23;20706;-85
2023/04/28 07:23:24;;;;;;;6.20;5.23;;;15.40;73.30;;;;;;6149613;23;20463;-85
2023/04/28 07:25:51;;;;;;;5.75;5.15;;;15.50;72.70;;;;;;6125759;23;20473;-85
2023/04/28 07:28:19;;;;;;;5.00;4.45;;;15.70;71.80;;;;;;6124714;23;20407;-85
2023/04/28 07:30:46;;;;;;;5.53;4.85;;;15.80;72.40;;;;;;6124438;23;20455;-85
2023/04/28 07:33:12;;;;;;;5.93;4.95;;;16.00;69.60;;;;;;6123247;23;20410;-85
2023/04/28 07:35:39;;;;;;;7.50;5.97;;;16.20;67.40;;;;;;6124053;23;20387;-85
2023/04/28 07:38:06;;;;;;;6.22;5.63;;;16.30;66.50;;;;;;6122671;23;20404;-84
2023/04/28 07:40:33;;;;;;;6.00;4.82;;;16.50;66.20;;;;;;6124178;23;20383;-85
2023/04/28 07:43:00;;;;;;;8.13;5.32;;;16.70;64.90;;;;;;6124238;23;20387;-84
2023/04/28 07:45:27;;;;;;;5.72;5.10;;;16.80;63.00;;;;;;6124365;23;20395;-85
2023/04/28 07:47:54;;;;;;;8.27;5.10;;;17.00;62.90;;;;;;6125361;23;20383;-85
2023/04/28 07:50:21;;;;;;;5.22;4.72;;;17.20;61.80;;;;;;6120625;23;20390;-85
2023/04/28 07:52:48;;;;;;;5.78;5.18;;;17.30;61.30;;;;;;6123205;23;20372;-84
2023/04/28 07:55:15;;;;;;;5.63;4.60;;;17.50;60.30;;;;;;6122566;23;20415;-84
2023/04/28 07:57:42;;;;;;;7.43;4.78;;;17.60;58.80;;;;;;6123314;23;20742;-85
2023/04/28 08:00:10;;;;;;;8.13;5.57;;;17.80;58.70;;;;;;6121947;23;20454;-84
2023/04/28 08:02:37;;;;;;;6.60;4.10;;;17.90;56.90;;;;;;6147636;23;20372;-84
2023/04/28 08:05:06;;;;;;;6.80;5.25;;;18.10;56.70;;;;;;6121337;23;20383;-84
2023/04/28 08:07:35;;;;;;;5.18;4.32;;;18.20;55.90;;;;;;6121445;23;20368;-85
2023/04/28 08:10:03;;;;;;;6.07;5.20;;;18.30;55.60;;;;;;6110716;23;20384;-84
2023/04/28 08:12:31;;;;;;;5.10;4.37;;;18.40;55.50;;;;;;6119977;23;20380;-85
2023/04/28 08:14:58;;;;;;;7.07;5.22;;;18.50;55.30;;;;;;6122873;23;20376;-84
2023/04/28 08:17:25;;;;;;;5.93;5.32;;;18.60;54.90;;;;;;6121771;23;20360;-84
2023/04/28 08:19:52;;;;;;;5.50;5.00;;;18.70;54.70;;;;;;6120933;23;20380;-83
2023/04/28 08:22:19;;;;;;;8.75;6.18;;;18.80;54.40;;;;;;6123403;23;20375;-84
2023/04/28 08:24:46;;;;;;;6.63;5.60;;;18.90;53.70;;;;;;6123073;23;20404;-84
2023/04/28 08:27:13;;;;;;;6.20;4.50;;;19.00;53.70;;;;;;6121605;23;20443;-84
2023/04/28 08:29:40;;;;;;;5.95;5.22;;;19.10;53.70;;;;;;6122264;23;20463;-84
2023/04/28 08:32:07;;;;;;;6.82;4.90;;;19.20;53.20;;;;;;6121714;23;20703;-84
2023/04/28 08:34:34;;;;;;;7.28;5.20;;;19.30;52.70;;;;;;6119833;23;20410;-84
2023/04/28 08:37:01;;;;;;;5.28;4.50;;;19.40;52.40;;;;;;6146446;23;20408;-83
2023/04/28 08:39:29;;;;;;;7.65;5.30;;;19.50;52.30;;;;;;6109674;23;20409;-83
2023/04/28 08:41:56;;;;;;;5.47;4.93;;;19.70;51.80;;;;;;6122475;23;20479;-84
2023/04/28 08:44:23;;;;;;;6.20;4.88;;;19.80;51.10;;;;;;6121551;23;20480;-84
2023/04/28 08:46:55;;;;;;;8.35;6.00;;;19.90;50.40;;;;;;6124190;23;20454;-83
2023/04/28 08:49:30;;;;;;;5.32;4.82;;;20.00;49.30;;;;;;6122321;23;20747;-83
2023/04/28 08:51:59;;;;;;;6.80;5.50;;;20.00;49.70;;;;;;6122525;23;20710;-84
2023/04/28 08:54:34;;;;;;;5.88;5.00;;;20.10;50.00;;;;;;6122808;23;20658;-84
2023/04/28 08:57:03;;;;;;;6.82;5.43;;;20.20;49.40;;;;;;6123280;23;20451;-83
2023/04/28 08:59:30;;;;;;;6.60;4.95;;;20.30;49.30;;;;;;6120266;23;20383;-83
2023/04/28 09:01:59;;;;;;;5.72;4.60;;;20.30;48.70;;;;;;6121302;23;20379;-83
2023/04/28 09:04:28;;;;;;;5.93;5.00;;;20.40;48.40;;;;;;6120839;23;20388;-83
2023/04/28 09:06:55;;;;;;;7.38;5.10;;;20.50;48.60;;;;;;6121499;23;20392;-83
2023/04/28 09:09:28;;;;;;;5.77;4.47;;;20.60;48.30;;;;;;6121357;23;20379;-83
2023/04/28 09:12:02;;;;;;;5.47;4.43;;;20.60;48.00;;;;;;6121347;23;20778;-82
2023/04/28 09:14:34;;;;;;;6.85;5.18;;;20.80;47.90;;;;;;6121503;23;20472;-83
2023/04/28 09:17:02;;;;;;;5.82;4.93;;;20.80;47.50;;;;;;6122122;23;20446;-83
2023/04/28 09:19:34;;;;;;;4.38;3.97;;;20.90;47.20;;;;;;6120807;23;20842;-84
2023/04/28 09:22:02;;;;;;;4.83;3.83;;;21.00;47.50;;;;;;6119761;23;20684;-83
2023/04/28 09:24:49;;;;;;;4.78;4.28;;;21.10;47.50;;;;;;6121276;23;20372;-82
2023/04/28 09:27:24;;;;;;;4.43;3.53;;;21.20;47.00;;;;;;6121697;23;20782;-84
2023/04/28 09:29:52;;;;;;;5.15;3.83;;;21.40;46.20;;;;;;6121131;23;20391;-84
2023/04/28 09:32:22;;;;;;;4.60;3.53;;;21.40;45.10;;;;;;6122200;23;20387;-83
2023/04/28 09:34:52;;;;;;;4.18;3.10;;;21.60;45.30;;;;;;6143967;23;20382;-83
2023/04/28 09:37:24;;;;;;;4.38;2.90;;;21.70;44.70;;;;;;6118012;23;20825;-83
2023/04/28 09:39:53;;;;;;;4.70;3.17;;;21.80;43.80;;;;;;6120207;23;20380;-83
2023/04/28 09:42:41;;;;;;;4.35;3.03;;;21.80;43.50;;;;;;6121496;23;20774;-83
2023/04/28 09:45:10;;;;;;;2.75;2.20;;;21.80;43.50;;;;;;6109060;23;20368;-83
2023/04/28 09:47:42;;;;;;;2.55;1.70;;;21.90;43.50;;;;;;6121965;23;20379;-82
2023/04/28 09:50:14;;;;;;;1.50;1.15;;;22.00;43.40;;;;;;6121272;23;20434;-83
2023/04/28 09:52:48;;;;;;;1.70;1.25;;;22.10;42.90;;;;;;6121573;23;20451;-83
2023/04/28 09:55:15;;;;;;;3.00;1.50;;;22.20;42.50;;;;;;6108807;23;20434;-83
2023/04/28 09:57:46;;;;;;;2.60;1.67;;;22.40;41.50;;;;;;6120334;23;20371;-82
2023/04/28 10:00:17;;;;;;;2.13;1.30;;;22.30;41.20;;;;;;6121042;23;20384;-83
2023/04/28 10:02:44;;;;;;;3.95;1.58;;;22.40;40.90;;;;;;6121526;23;20383;-83
2023/04/28 10:05:15;;;;;;;2.53;1.10;;;22.40;40.60;;;;;;6122199;23;20404;-83
2023/04/28 10:07:43;;;;;;;2.38;1.50;;;22.60;40.60;;;;;;6121529;23;20392;-83
2023/04/28 10:10:13;;;;;;;1.90;1.05;;;22.60;40.10;;;;;;6120564;23;20379;-83
2023/04/28 10:12:40;;;;;;;2.85;1.30;;;22.60;40.60;;;;;;6146015;23;20853;-83
2023/04/28 10:15:11;;;;;;;1.70;1.40;;;22.70;40.40;;;;;;6120933;23;20804;-84
2023/04/28 10:17:39;;;;;;;2.78;1.20;;;22.70;40.20;;;;;;6120302;23;20407;-83
2023/04/28 10:20:07;;;;;;;2.40;1.03;;;22.80;39.90;;;;;;6120764;23;20715;-84
2023/04/28 10:22:47;;;;;;;2.28;1.42;;;22.80;40.50;;;;;;6120941;23;20388;-83
2023/04/28 10:25:26;;;;;;;1.65;0.70;;;22.80;40.00;;;;;;6144838;23;20363;-83
2023/04/28 10:27:53;;;;;;;1.75;0.75;;;22.80;41.00;;;;;;6120821;23;20427;-82
2023/04/28 10:30:22;;;;;;;2.42;1.00;;;22.90;40.90;;;;;;6121845;23;20407;-83
2023/04/28 10:33:12;;;;;;;1.80;0.70;;;23.00;39.70;;;;;;6121053;23;20485;-83
2023/04/28 10:35:42;;;;;;;1.70;0.70;;;23.20;40.00;;;;;;6145828;23;20447;-83
2023/04/28 10:38:12;;;;;;;3.05;1.00;;;23.20;40.00;;;;;;6120854;23;20380;-83
2023/04/28 10:40:41;;;;;;;3.65;1.00;;;23.40;40.50;;;;;;6121791;23;20802;-83
2023/04/28 10:43:10;;;;;;;1.67;0.82;;;23.40;38.50;;;;;;6120729;23;20451;-84
2023/04/28 10:45:52;;;;;;;1.45;0.60;;;23.30;37.50;;;;;;6121328;23;20451;-82
2023/04/28 10:48:45;;;;;;;2.50;0.70;;;23.20;38.90;;;;;;6144306;23;20367;-83
2023/04/28 10:51:15;;;;;;;2.97;0.98;;;23.20;39.30;;;;;;6144877;23;20407;-83
2023/04/28 10:53:44;;;;;;;2.70;1.27;;;23.30;39.60;;;;;;6146053;23;20702;-83
2023/04/28 10:56:26;;;;;;;2.60;1.08;;;23.30;39.00;;;;;;6144769;23;20720;-83
2023/04/28 10:58:54;;;;;;;1.77;0.90;;;23.40;38.80;;;;;;6121498;23;20476;-83
2023/04/28 11:01:23;;;;;;;1.20;0.80;;;23.50;39.10;;;;;;6120577;23;20442;-84
2023/04/28 11:03:52;;;;;;;1.87;0.70;;;23.50;39.20;;;;;;6145079;23;20383;-83
2023/04/28 11:06:26;;;;;;;1.42;0.65;;;23.50;39.80;;;;;;6145241;23;20746;-83
2023/04/28 11:09:01;;;;;;;2.05;0.88;;;23.60;39.60;;;;;;6121074;23;20404;-83
2023/04/28 11:11:33;;;;;;;2.10;0.88;;;23.70;39.10;;;;;;6120486;23;21573;-82
2023/04/28 11:14:20;;;;;;;1.50;0.80;;;23.70;38.70;;;;;;6121017;23;20379;-83
2023/04/28 11:16:55;;;;;;;1.70;0.77;;;23.60;38.80;;;;;;6088652;23;20446;-82
2023/04/28 11:19:23;;;;;;;1.55;0.77;;;23.60;39.00;;;;;;6145704;23;20443;-83
2023/04/28 11:21:52;;;;;;;2.42;0.85;;;23.50;38.50;;;;;;6120824;23;20681;-83
2023/04/28 11:24:19;;;;;;;3.40;0.88;;;23.50;38.60;;;;;;6121453;23;20439;-83
2023/04/28 11:26:46;;;;;;;1.63;0.90;;;23.60;39.10;;;;;;6120060;23;20414;-83
2023/04/28 11:29:16;;;;;;;3.33;1.20;;;23.50;38.10;;;;;;6121246;23;20868;-82
2023/04/28 11:31:50;;;;;;;1.40;0.80;;;23.40;38.50;;;;;;6120209;23;20571;-83
2023/04/28 11:34:21;;;;;;;1.40;0.68;;;23.50;38.60;;;;;;6123431;23;20842;-83
2023/04/28 11:36:48;;;;;;;2.20;0.57;;;23.40;38.10;;;;;;6122685;23;20364;-83
2023/04/28 11:39:15;;;;;;;3.33;1.00;;;23.30;38.20;;;;;;6122689;23;20380;-83
2023/04/28 11:41:43;;;;;;;1.63;0.80;;;23.10;38.00;;;;;;6122088;23;20470;-83
2023/04/28 11:44:18;;;;;;;2.53;0.95;;;23.00;39.20;;;;;;6123162;23;20707;-81
2023/04/28 11:47:00;;;;;;;3.53;0.73;;;23.10;39.50;;;;;;6121827;23;20422;-83
2023/04/28 11:49:29;;;;;;;3.03;1.00;;;23.30;39.50;;;;;;6122185;23;20376;-81
2023/04/28 11:52:02;;;;;;;2.65;0.80;;;23.50;40.00;;;;;;6122977;23;20418;-81
2023/04/28 11:54:29;;;;;;;2.23;0.70;;;23.60;37.90;;;;;;6121947;23;20387;-81
2023/04/28 11:56:57;;;;;;;2.25;0.70;;;23.70;37.90;;;;;;6122756;23;20452;-81
2023/04/28 11:59:30;;;;;;;1.52;0.88;;;23.90;37.90;;;;;;6122623;23;20383;-81
2023/04/28 12:02:07;;;;;;;2.05;1.25;;;24.00;37.20;;;;;;6122052;23;20374;-81
2023/04/28 12:04:39;;;;;;;1.42;0.57;;;24.00;35.80;;;;;;6121455;23;20372;-81
2023/04/28 12:07:14;;;;;;;1.80;0.70;;;23.90;37.40;;;;;;6122447;23;20380;-82
2023/04/28 12:10:02;;;;;;;1.45;0.60;;;24.00;37.70;;;;;;6123282;23;20443;-81
2023/04/28 12:12:32;;;;;;;1.90;0.70;;;24.20;37.50;;;;;;6121050;23;20454;-82
2023/04/28 12:15:04;;;;;;;2.78;0.80;;;24.40;36.90;;;;;;6110190;23;20395;-82
2023/04/28 12:17:41;;;;;;;1.55;0.82;;;24.50;36.70;;;;;;6122151;23;20392;-82
2023/04/28 12:20:10;;;;;;;2.40;0.80;;;24.50;36.10;;;;;;6134127;23;20367;-81
2023/04/28 12:22:50;;;;;;;1.13;0.80;;;24.30;36.10;;;;;;6124137;23;20403;-81
2023/04/28 12:25:18;;;;;;;1.20;0.70;;;24.10;37.10;;;;;;6109539;23;20455;-82
2023/04/28 12:27:59;;;;;;;3.30;1.27;;;23.90;37.20;;;;;;6122210;23;20375;-82
2023/04/28 12:30:27;;;;;;;2.00;0.95;;;23.70;37.40;;;;;;6109599;23;20675;-82
2023/04/28 12:32:54;;;;;;;1.70;0.80;;;23.60;38.30;;;;;;6122474;23;20391;-82
2023/04/28 12:35:23;;;;;;;2.83;1.10;;;23.50;38.20;;;;;;6121653;23;20445;-81
2023/04/28 12:37:54;;;;;;;2.53;0.82;;;23.50;37.40;;;;;;6122940;23;20691;-81
2023/04/28 12:40:22;;;;;;;1.30;0.85;;;23.50;37.90;;;;;;6121087;23;20769;-81
2023/04/28 12:42:49;;;;;;;4.15;1.40;;;23.60;37.60;;;;;;6122073;23;20387;-82
2023/04/28 12:45:16;;;;;;;2.10;0.90;;;23.70;38.40;;;;;;6121155;23;20376;-82
2023/04/28 12:47:43;;;;;;;1.25;0.80;;;23.80;38.40;;;;;;6122727;23;20384;-81
2023/04/28 12:50:10;;;;;;;2.08;0.75;;;24.00;38.00;;;;;;6121461;23;20392;-83
2023/04/28 12:52:37;;;;;;;3.78;1.13;;;24.20;37.80;;;;;;6122022;23;20372;-82
2023/04/28 12:55:05;;;;;;;2.67;0.90;;;24.40;37.40;;;;;;6122301;23;20372;-82
2023/04/28 12:57:32;;;;;;;1.77;0.70;;;24.60;35.90;;;;;;6122420;23;20406;-82
2023/04/28 12:59:59;;;;;;;2.00;0.90;;;24.60;36.30;;;;;;6146374;23;20376;-82
2023/04/28 13:02:26;;;;;;;1.52;0.80;;;24.70;36.10;;;;;;6121334;23;20396;-81
2023/04/28 13:04:53;;;;;;;1.55;0.88;;;24.70;35.90;;;;;;6121568;23;20372;-82
2023/04/28 13:07:20;;;;;;;1.57;0.80;;;24.70;36.00;;;;;;6121491;23;20732;-82
2023/04/28 13:09:47;;;;;;;1.77;0.63;;;24.70;36.10;;;;;;6146012;23;20403;-82